sensor_id;sensor_type;location;lat;lon;timestamp;P1;durP1;ratioP1;P2;durP2;ratioP2
22287;SDS011;11312;51.464;6.968;2022-09-01T00:01:50;0.68;;;0.68;;
22287;SDS011;11312;51.464;6.968;2022-09-01T00:04:20;0.85;;;0.70;;
22287;SDS011;11312;51.464;6.968;2022-09-01T00:06:49;0.70;;;0.70;;
22287;SDS011;11312;51.464;6.968;2022-09-01T00:09:17;1.80;;;1.13;;
22287;SDS011;11312;51.464;6.968;2022-09-01T00:11:45;0.60;;;0.60;;
22287;SDS011;11312;51.464;6.968;2022-09-01T00:14:12;0.70;;;0.70;;
22287;SDS011;11312;51.464;6.968;2022-09-01T00:16:38;1.38;;;0.95;;
22287;SDS011;11312;51.464;6.968;2022-09-01T00:19:04;1.65;;;1.02;;
22287;SDS011;11312;51.464;6.968;2022-09-01T00:21:32;1.05;;;0.85;;
22287;SDS011;11312;51.464;6.968;2022-09-01T00:24:01;1.90;;;1.15;;
22287;SDS011;11312;51.464;6.968;2022-09-01T00:26:27;0.77;;;0.77;;
22287;SDS011;11312;51.464;6.968;2022-09-01T00:28:52;1.00;;;0.90;;
22287;SDS011;11312;51.464;6.968;2022-09-01T00:31:18;0.80;;;0.80;;
22287;SDS011;11312;51.464;6.968;2022-09-01T00:33:46;1.05;;;0.95;;
22287;SDS011;11312;51.464;6.968;2022-09-01T00:36:13;1.75;;;1.25;;
22287;SDS011;11312;51.464;6.968;2022-09-01T00:38:39;1.48;;;0.82;;
22287;SDS011;11312;51.464;6.968;2022-09-01T00:41:05;0.82;;;0.82;;
22287;SDS011;11312;51.464;6.968;2022-09-01T00:43:36;0.80;;;0.80;;
22287;SDS011;11312;51.464;6.968;2022-09-01T00:46:14;0.80;;;0.80;;
22287;SDS011;11312;51.464;6.968;2022-09-01T00:48:50;0.82;;;0.82;;
22287;SDS011;11312;51.464;6.968;2022-09-01T00:51:24;0.90;;;0.90;;
22287;SDS011;11312;51.464;6.968;2022-09-01T00:53:52;0.80;;;0.80;;
22287;SDS011;11312;51.464;6.968;2022-09-01T00:56:20;0.73;;;0.73;;
22287;SDS011;11312;51.464;6.968;2022-09-01T00:58:47;1.55;;;1.00;;
22287;SDS011;11312;51.464;6.968;2022-09-01T01:01:14;1.13;;;1.02;;
22287;SDS011;11312;51.464;6.968;2022-09-01T01:03:39;0.63;;;0.63;;
22287;SDS011;11312;51.464;6.968;2022-09-01T01:06:09;0.80;;;0.80;;
22287;SDS011;11312;51.464;6.968;2022-09-01T01:08:39;0.70;;;0.70;;
22287;SDS011;11312;51.464;6.968;2022-09-01T01:11:09;0.70;;;0.70;;
22287;SDS011;11312;51.464;6.968;2022-09-01T01:13:51;0.90;;;0.90;;
22287;SDS011;11312;51.464;6.968;2022-09-01T01:16:20;0.93;;;0.90;;
22287;SDS011;11312;51.464;6.968;2022-09-01T01:18:46;0.70;;;0.70;;
22287;SDS011;11312;51.464;6.968;2022-09-01T01:21:34;1.88;;;1.02;;
22287;SDS011;11312;51.464;6.968;2022-09-01T01:24:29;1.38;;;1.15;;
22287;SDS011;11312;51.464;6.968;2022-09-01T01:26:57;0.80;;;0.80;;
22287;SDS011;11312;51.464;6.968;2022-09-01T01:29:31;0.80;;;0.80;;
22287;SDS011;11312;51.464;6.968;2022-09-01T01:31:59;1.67;;;1.05;;
22287;SDS011;11312;51.464;6.968;2022-09-01T01:34:26;0.75;;;0.75;;
22287;SDS011;11312;51.464;6.968;2022-09-01T01:36:52;0.93;;;0.90;;
22287;SDS011;11312;51.464;6.968;2022-09-01T01:39:20;0.95;;;0.82;;
22287;SDS011;11312;51.464;6.968;2022-09-01T01:41:52;0.82;;;0.80;;
22287;SDS011;11312;51.464;6.968;2022-09-01T01:44:21;1.45;;;1.02;;
22287;SDS011;11312;51.464;6.968;2022-09-01T01:46:52;1.00;;;0.90;;
22287;SDS011;11312;51.464;6.968;2022-09-01T01:49:20;0.80;;;0.80;;
22287;SDS011;11312;51.464;6.968;2022-09-01T01:51:47;0.75;;;0.75;;
22287;SDS011;11312;51.464;6.968;2022-09-01T01:54:21;0.75;;;0.75;;
22287;SDS011;11312;51.464;6.968;2022-09-01T01:56:47;0.88;;;0.82;;
22287;SDS011;11312;51.464;6.968;2022-09-01T01:59:13;0.95;;;0.90;;
22287;SDS011;11312;51.464;6.968;2022-09-01T02:01:41;1.48;;;1.00;;
22287;SDS011;11312;51.464;6.968;2022-09-01T02:04:13;0.80;;;0.80;;
22287;SDS011;11312;51.464;6.968;2022-09-01T02:06:41;1.95;;;1.35;;
22287;SDS011;11312;51.464;6.968;2022-09-01T02:09:10;0.70;;;0.70;;
22287;SDS011;11312;51.464;6.968;2022-09-01T02:11:37;0.80;;;0.80;;
22287;SDS011;11312;51.464;6.968;2022-09-01T02:14:03;0.82;;;0.82;;
22287;SDS011;11312;51.464;6.968;2022-09-01T02:16:31;1.15;;;1.02;;
22287;SDS011;11312;51.464;6.968;2022-09-01T02:18:58;0.80;;;0.80;;
22287;SDS011;11312;51.464;6.968;2022-09-01T02:21:24;0.90;;;0.90;;
22287;SDS011;11312;51.464;6.968;2022-09-01T02:24:01;1.20;;;1.00;;
22287;SDS011;11312;51.464;6.968;2022-09-01T02:26:34;1.00;;;0.90;;
22287;SDS011;11312;51.464;6.968;2022-09-01T02:29:04;0.90;;;0.90;;
22287;SDS011;11312;51.464;6.968;2022-09-01T02:31:34;0.90;;;0.90;;
22287;SDS011;11312;51.464;6.968;2022-09-01T02:34:04;0.80;;;0.80;;
22287;SDS011;11312;51.464;6.968;2022-09-01T02:36:34;1.35;;;0.98;;
22287;SDS011;11312;51.464;6.968;2022-09-01T02:39:06;0.80;;;0.80;;
22287;SDS011;11312;51.464;6.968;2022-09-01T02:41:32;1.65;;;1.45;;
22287;SDS011;11312;51.464;6.968;2022-09-01T02:43:58;2.38;;;1.13;;
22287;SDS011;11312;51.464;6.968;2022-09-01T02:46:26;2.38;;;1.55;;
22287;SDS011;11312;51.464;6.968;2022-09-01T02:48:53;0.80;;;0.80;;
22287;SDS011;11312;51.464;6.968;2022-09-01T02:51:20;1.08;;;0.90;;
22287;SDS011;11312;51.464;6.968;2022-09-01T02:53:47;0.80;;;0.80;;
22287;SDS011;11312;51.464;6.968;2022-09-01T02:56:16;1.65;;;1.23;;
22287;SDS011;11312;51.464;6.968;2022-09-01T02:58:44;1.10;;;1.00;;
22287;SDS011;11312;51.464;6.968;2022-09-01T03:01:12;1.25;;;1.02;;
22287;SDS011;11312;51.464;6.968;2022-09-01T03:03:50;1.02;;;1.00;;
22287;SDS011;11312;51.464;6.968;2022-09-01T03:06:18;1.00;;;0.93;;
22287;SDS011;11312;51.464;6.968;2022-09-01T03:08:48;0.93;;;0.93;;
22287;SDS011;11312;51.464;6.968;2022-09-01T03:11:14;0.80;;;0.80;;
22287;SDS011;11312;51.464;6.968;2022-09-01T03:13:40;2.97;;;1.30;;
22287;SDS011;11312;51.464;6.968;2022-09-01T03:16:07;4.50;;;1.98;;
22287;SDS011;11312;51.464;6.968;2022-09-01T03:18:34;1.20;;;1.10;;
22287;SDS011;11312;51.464;6.968;2022-09-01T03:21:00;2.08;;;1.15;;
22287;SDS011;11312;51.464;6.968;2022-09-01T03:23:27;0.88;;;0.88;;
22287;SDS011;11312;51.464;6.968;2022-09-01T03:25:53;0.90;;;0.90;;
22287;SDS011;11312;51.464;6.968;2022-09-01T03:28:19;0.80;;;0.80;;
22287;SDS011;11312;51.464;6.968;2022-09-01T03:30:46;3.28;;;1.70;;
22287;SDS011;11312;51.464;6.968;2022-09-01T03:33:15;0.80;;;0.80;;
22287;SDS011;11312;51.464;6.968;2022-09-01T03:35:43;0.85;;;0.85;;
22287;SDS011;11312;51.464;6.968;2022-09-01T03:38:09;0.70;;;0.70;;
22287;SDS011;11312;51.464;6.968;2022-09-01T03:40:37;0.90;;;0.90;;
22287;SDS011;11312;51.464;6.968;2022-09-01T03:43:08;1.17;;;1.00;;
22287;SDS011;11312;51.464;6.968;2022-09-01T03:45:35;2.30;;;1.20;;
22287;SDS011;11312;51.464;6.968;2022-09-01T03:48:03;0.90;;;0.90;;
22287;SDS011;11312;51.464;6.968;2022-09-01T03:50:34;3.78;;;1.60;;
22287;SDS011;11312;51.464;6.968;2022-09-01T03:53:04;0.90;;;0.90;;
22287;SDS011;11312;51.464;6.968;2022-09-01T03:55:30;1.17;;;1.00;;
22287;SDS011;11312;51.464;6.968;2022-09-01T03:58:01;2.00;;;1.13;;
22287;SDS011;11312;51.464;6.968;2022-09-01T04:00:31;2.15;;;1.15;;
22287;SDS011;11312;51.464;6.968;2022-09-01T04:03:00;0.90;;;0.90;;
22287;SDS011;11312;51.464;6.968;2022-09-01T04:05:28;2.38;;;1.35;;
22287;SDS011;11312;51.464;6.968;2022-09-01T04:07:58;0.90;;;0.90;;
22287;SDS011;11312;51.464;6.968;2022-09-01T04:10:28;1.05;;;0.90;;
22287;SDS011;11312;51.464;6.968;2022-09-01T04:12:59;2.17;;;1.25;;
22287;SDS011;11312;51.464;6.968;2022-09-01T04:15:26;1.20;;;1.10;;
22287;SDS011;11312;51.464;6.968;2022-09-01T04:17:53;1.45;;;1.00;;
22287;SDS011;11312;51.464;6.968;2022-09-01T04:20:40;2.90;;;1.75;;
22287;SDS011;11312;51.464;6.968;2022-09-01T04:23:16;0.90;;;0.90;;
22287;SDS011;11312;51.464;6.968;2022-09-01T04:26:10;1.00;;;1.00;;
22287;SDS011;11312;51.464;6.968;2022-09-01T04:31:06;1.77;;;1.10;;
22287;SDS011;11312;51.464;6.968;2022-09-01T04:33:34;1.58;;;1.05;;
22287;SDS011;11312;51.464;6.968;2022-09-01T04:36:04;0.90;;;0.90;;
22287;SDS011;11312;51.464;6.968;2022-09-01T04:38:37;1.70;;;1.33;;
22287;SDS011;11312;51.464;6.968;2022-09-01T04:41:04;1.88;;;1.10;;
22287;SDS011;11312;51.464;6.968;2022-09-01T04:43:30;1.40;;;1.08;;
22287;SDS011;11312;51.464;6.968;2022-09-01T04:46:00;1.88;;;1.25;;
22287;SDS011;11312;51.464;6.968;2022-09-01T04:48:27;0.90;;;0.90;;
22287;SDS011;11312;51.464;6.968;2022-09-01T04:50:52;1.20;;;1.08;;
22287;SDS011;11312;51.464;6.968;2022-09-01T04:53:20;1.60;;;1.10;;
22287;SDS011;11312;51.464;6.968;2022-09-01T04:55:48;1.73;;;1.15;;
22287;SDS011;11312;51.464;6.968;2022-09-01T04:58:17;1.20;;;1.10;;
22287;SDS011;11312;51.464;6.968;2022-09-01T05:00:44;0.93;;;0.93;;
22287;SDS011;11312;51.464;6.968;2022-09-01T05:03:16;2.88;;;1.42;;
22287;SDS011;11312;51.464;6.968;2022-09-01T05:05:45;1.20;;;1.02;;
22287;SDS011;11312;51.464;6.968;2022-09-01T05:08:12;4.25;;;2.13;;
22287;SDS011;11312;51.464;6.968;2022-09-01T05:10:45;1.92;;;1.13;;
22287;SDS011;11312;51.464;6.968;2022-09-01T05:13:16;2.63;;;1.42;;
22287;SDS011;11312;51.464;6.968;2022-09-01T05:15:44;2.22;;;1.30;;
22287;SDS011;11312;51.464;6.968;2022-09-01T05:18:12;1.38;;;1.10;;
22287;SDS011;11312;51.464;6.968;2022-09-01T05:20:47;0.95;;;0.93;;
22287;SDS011;11312;51.464;6.968;2022-09-01T05:23:13;1.42;;;1.15;;
22287;SDS011;11312;51.464;6.968;2022-09-01T05:25:44;1.90;;;1.30;;
22287;SDS011;11312;51.464;6.968;2022-09-01T05:28:13;1.20;;;1.10;;
22287;SDS011;11312;51.464;6.968;2022-09-01T05:30:42;1.70;;;1.08;;
22287;SDS011;11312;51.464;6.968;2022-09-01T05:33:09;1.05;;;1.00;;
22287;SDS011;11312;51.464;6.968;2022-09-01T05:35:41;1.25;;;1.00;;
22287;SDS011;11312;51.464;6.968;2022-09-01T05:38:16;1.60;;;1.23;;
22287;SDS011;11312;51.464;6.968;2022-09-01T05:40:42;2.10;;;1.30;;
22287;SDS011;11312;51.464;6.968;2022-09-01T05:43:10;1.15;;;1.00;;
22287;SDS011;11312;51.464;6.968;2022-09-01T05:45:38;2.33;;;1.27;;
22287;SDS011;11312;51.464;6.968;2022-09-01T05:48:09;1.40;;;1.00;;
22287;SDS011;11312;51.464;6.968;2022-09-01T05:50:42;10.07;;;2.90;;
22287;SDS011;11312;51.464;6.968;2022-09-01T05:53:10;9.77;;;1.55;;
22287;SDS011;11312;51.464;6.968;2022-09-01T05:55:43;1.55;;;1.00;;
22287;SDS011;11312;51.464;6.968;2022-09-01T05:58:10;1.60;;;1.27;;
22287;SDS011;11312;51.464;6.968;2022-09-01T06:00:43;1.35;;;1.10;;
22287;SDS011;11312;51.464;6.968;2022-09-01T06:03:13;1.25;;;1.00;;
22287;SDS011;11312;51.464;6.968;2022-09-01T06:05:42;1.13;;;1.02;;
22287;SDS011;11312;51.464;6.968;2022-09-01T06:08:12;1.00;;;0.95;;
22287;SDS011;11312;51.464;6.968;2022-09-01T06:10:39;1.80;;;1.23;;
22287;SDS011;11312;51.464;6.968;2022-09-01T06:13:06;0.82;;;0.82;;
22287;SDS011;11312;51.464;6.968;2022-09-01T06:15:33;2.72;;;1.20;;
22287;SDS011;11312;51.464;6.968;2022-09-01T06:18:03;4.88;;;1.52;;
22287;SDS011;11312;51.464;6.968;2022-09-01T06:20:30;1.05;;;0.95;;
22287;SDS011;11312;51.464;6.968;2022-09-01T06:22:55;2.58;;;1.45;;
22287;SDS011;11312;51.464;6.968;2022-09-01T06:25:22;2.03;;;1.33;;
22287;SDS011;11312;51.464;6.968;2022-09-01T06:27:50;2.28;;;1.33;;
22287;SDS011;11312;51.464;6.968;2022-09-01T06:30:16;1.00;;;1.00;;
22287;SDS011;11312;51.464;6.968;2022-09-01T06:32:48;1.35;;;1.00;;
22287;SDS011;11312;51.464;6.968;2022-09-01T06:35:14;2.42;;;1.35;;
22287;SDS011;11312;51.464;6.968;2022-09-01T06:37:40;1.77;;;1.33;;
22287;SDS011;11312;51.464;6.968;2022-09-01T06:40:11;0.90;;;0.90;;
22287;SDS011;11312;51.464;6.968;2022-09-01T06:42:45;1.40;;;1.10;;
22287;SDS011;11312;51.464;6.968;2022-09-01T06:45:16;0.93;;;0.93;;
22287;SDS011;11312;51.464;6.968;2022-09-01T06:47:44;2.60;;;1.40;;
22287;SDS011;11312;51.464;6.968;2022-09-01T06:50:12;0.95;;;0.93;;
22287;SDS011;11312;51.464;6.968;2022-09-01T06:52:42;0.90;;;0.90;;
22287;SDS011;11312;51.464;6.968;2022-09-01T06:55:09;1.60;;;1.02;;
22287;SDS011;11312;51.464;6.968;2022-09-01T06:57:36;0.80;;;0.80;;
22287;SDS011;11312;51.464;6.968;2022-09-01T07:00:04;0.77;;;0.77;;
22287;SDS011;11312;51.464;6.968;2022-09-01T07:02:41;2.05;;;0.90;;
22287;SDS011;11312;51.464;6.968;2022-09-01T07:05:12;2.17;;;1.25;;
22287;SDS011;11312;51.464;6.968;2022-09-01T07:07:48;0.80;;;0.80;;
22287;SDS011;11312;51.464;6.968;2022-09-01T07:10:20;0.80;;;0.80;;
22287;SDS011;11312;51.464;6.968;2022-09-01T07:12:55;6.80;;;1.63;;
22287;SDS011;11312;51.464;6.968;2022-09-01T07:15:25;0.52;;;0.52;;
22287;SDS011;11312;51.464;6.968;2022-09-01T07:17:53;0.60;;;0.60;;
22287;SDS011;11312;51.464;6.968;2022-09-01T07:20:24;0.90;;;0.85;;
22287;SDS011;11312;51.464;6.968;2022-09-01T07:22:54;5.07;;;1.10;;
22287;SDS011;11312;51.464;6.968;2022-09-01T07:25:21;0.70;;;0.70;;
22287;SDS011;11312;51.464;6.968;2022-09-01T07:27:48;1.02;;;0.77;;
22287;SDS011;11312;51.464;6.968;2022-09-01T07:30:15;0.50;;;0.50;;
22287;SDS011;11312;51.464;6.968;2022-09-01T07:35:13;1.50;;;0.93;;
22287;SDS011;11312;51.464;6.968;2022-09-01T07:42:36;1.20;;;1.00;;
22287;SDS011;11312;51.464;6.968;2022-09-01T07:45:04;0.40;;;0.40;;
22287;SDS011;11312;51.464;6.968;2022-09-01T07:47:34;1.27;;;0.75;;
22287;SDS011;11312;51.464;6.968;2022-09-01T07:50:04;2.10;;;0.60;;
22287;SDS011;11312;51.464;6.968;2022-09-01T07:52:36;0.40;;;0.40;;
22287;SDS011;11312;51.464;6.968;2022-09-01T07:55:10;0.30;;;0.30;;
22287;SDS011;11312;51.464;6.968;2022-09-01T07:57:38;1.00;;;0.70;;
22287;SDS011;11312;51.464;6.968;2022-09-01T08:00:07;0.80;;;0.50;;
22287;SDS011;11312;51.464;6.968;2022-09-01T08:02:35;0.68;;;0.52;;
22287;SDS011;11312;51.464;6.968;2022-09-01T08:05:06;0.82;;;0.60;;
22287;SDS011;11312;51.464;6.968;2022-09-01T08:07:33;0.65;;;0.38;;
22287;SDS011;11312;51.464;6.968;2022-09-01T08:10:00;1.02;;;0.77;;
22287;SDS011;11312;51.464;6.968;2022-09-01T08:12:26;1.00;;;0.68;;
22287;SDS011;11312;51.464;6.968;2022-09-01T08:14:53;2.08;;;1.10;;
22287;SDS011;11312;51.464;6.968;2022-09-01T08:17:18;1.10;;;0.75;;
22287;SDS011;11312;51.464;6.968;2022-09-01T08:19:45;1.40;;;0.60;;
22287;SDS011;11312;51.464;6.968;2022-09-01T08:22:11;0.32;;;0.32;;
22287;SDS011;11312;51.464;6.968;2022-09-01T08:24:38;0.70;;;0.30;;
22287;SDS011;11312;51.464;6.968;2022-09-01T08:27:04;0.60;;;0.30;;
22287;SDS011;11312;51.464;6.968;2022-09-01T08:29:30;0.22;;;0.22;;
22287;SDS011;11312;51.464;6.968;2022-09-01T08:31:56;0.85;;;0.50;;
22287;SDS011;11312;51.464;6.968;2022-09-01T08:34:23;0.45;;;0.17;;
22287;SDS011;11312;51.464;6.968;2022-09-01T08:36:52;1.65;;;0.85;;
22287;SDS011;11312;51.464;6.968;2022-09-01T08:39:18;0.15;;;0.15;;
22287;SDS011;11312;51.464;6.968;2022-09-01T08:41:51;1.67;;;0.70;;
22287;SDS011;11312;51.464;6.968;2022-09-01T08:47:26;0.13;;;0.13;;
22287;SDS011;11312;51.464;6.968;2022-09-01T08:49:52;0.20;;;0.20;;
22287;SDS011;11312;51.464;6.968;2022-09-01T08:52:21;0.20;;;0.20;;
22287;SDS011;11312;51.464;6.968;2022-09-01T08:55:17;0.20;;;0.20;;
22287;SDS011;11312;51.464;6.968;2022-09-01T08:57:56;0.10;;;0.10;;
22287;SDS011;11312;51.464;6.968;2022-09-01T09:00:25;0.10;;;0.10;;
22287;SDS011;11312;51.464;6.968;2022-09-01T09:16:45;1.52;;;0.70;;
22287;SDS011;11312;51.464;6.968;2022-09-01T09:19:34;0.98;;;0.50;;
22287;SDS011;11312;51.464;6.968;2022-09-01T09:22:07;0.55;;;0.28;;
22287;SDS011;11312;51.464;6.968;2022-09-01T09:24:51;0.70;;;0.43;;
22287;SDS011;11312;51.464;6.968;2022-09-01T09:27:30;0.13;;;0.13;;
22287;SDS011;11312;51.464;6.968;2022-09-01T09:29:59;0.17;;;0.17;;
22287;SDS011;11312;51.464;6.968;2022-09-01T09:32:47;0.17;;;0.17;;
22287;SDS011;11312;51.464;6.968;2022-09-01T09:37:42;1.00;;;0.35;;
22287;SDS011;11312;51.464;6.968;2022-09-01T09:42:42;0.70;;;0.40;;
22287;SDS011;11312;51.464;6.968;2022-09-01T09:47:52;0.20;;;0.20;;
22287;SDS011;11312;51.464;6.968;2022-09-01T09:52:51;0.10;;;0.10;;
22287;SDS011;11312;51.464;6.968;2022-09-01T09:57:53;0.43;;;0.20;;
22287;SDS011;11312;51.464;6.968;2022-09-01T10:00:25;0.15;;;0.13;;
22287;SDS011;11312;51.464;6.968;2022-09-01T10:02:59;0.90;;;0.47;;
22287;SDS011;11312;51.464;6.968;2022-09-01T10:05:37;0.30;;;0.30;;
22287;SDS011;11312;51.464;6.968;2022-09-01T10:08:07;0.13;;;0.13;;
22287;SDS011;11312;51.464;6.968;2022-09-01T10:11:04;0.28;;;0.20;;
22287;SDS011;11312;51.464;6.968;2022-09-01T10:13:31;1.17;;;0.25;;
22287;SDS011;11312;51.464;6.968;2022-09-01T10:16:00;0.65;;;0.10;;
22287;SDS011;11312;51.464;6.968;2022-09-01T10:18:29;0.77;;;0.25;;
22287;SDS011;11312;51.464;6.968;2022-09-01T10:21:07;0.85;;;0.20;;
22287;SDS011;11312;51.464;6.968;2022-09-01T10:23:39;0.00;;;0.00;;
22287;SDS011;11312;51.464;6.968;2022-09-01T10:26:16;0.00;;;0.00;;
22287;SDS011;11312;51.464;6.968;2022-09-01T10:29:08;2.45;;;0.52;;
22287;SDS011;11312;51.464;6.968;2022-09-01T10:31:40;3.10;;;0.52;;
22287;SDS011;11312;51.464;6.968;2022-09-01T10:34:07;0.05;;;0.05;;
22287;SDS011;11312;51.464;6.968;2022-09-01T10:36:40;0.15;;;0.10;;
22287;SDS011;11312;51.464;6.968;2022-09-01T10:39:11;0.10;;;0.08;;
22287;SDS011;11312;51.464;6.968;2022-09-01T10:41:46;1.05;;;0.30;;
22287;SDS011;11312;51.464;6.968;2022-09-01T10:46:56;0.38;;;0.15;;
22287;SDS011;11312;51.464;6.968;2022-09-01T10:51:54;0.00;;;0.00;;
22287;SDS011;11312;51.464;6.968;2022-09-01T11:02:48;2.05;;;0.45;;
22287;SDS011;11312;51.464;6.968;2022-09-01T11:13:35;0.10;;;0.10;;
22287;SDS011;11312;51.464;6.968;2022-09-01T11:16:32;0.70;;;0.10;;
22287;SDS011;11312;51.464;6.968;2022-09-01T11:27:03;1.85;;;0.73;;
22287;SDS011;11312;51.464;6.968;2022-09-01T11:32:36;0.20;;;0.05;;
22287;SDS011;11312;51.464;6.968;2022-09-01T11:35:04;1.08;;;0.20;;
22287;SDS011;11312;51.464;6.968;2022-09-01T11:37:38;1.00;;;0.35;;
22287;SDS011;11312;51.464;6.968;2022-09-01T11:40:05;0.35;;;0.10;;
22287;SDS011;11312;51.464;6.968;2022-09-01T11:47:39;1.05;;;0.30;;
22287;SDS011;11312;51.464;6.968;2022-09-01T11:50:18;0.15;;;0.15;;
22287;SDS011;11312;51.464;6.968;2022-09-01T11:53:05;0.63;;;0.32;;
22287;SDS011;11312;51.464;6.968;2022-09-01T11:55:41;4.97;;;0.98;;
22287;SDS011;11312;51.464;6.968;2022-09-01T11:58:11;1.42;;;0.43;;
22287;SDS011;11312;51.464;6.968;2022-09-01T12:00:39;0.57;;;0.15;;
22287;SDS011;11312;51.464;6.968;2022-09-01T12:03:19;0.70;;;0.30;;
22287;SDS011;11312;51.464;6.968;2022-09-01T12:05:58;0.10;;;0.05;;
22287;SDS011;11312;51.464;6.968;2022-09-01T12:08:28;1.10;;;0.40;;
22287;SDS011;11312;51.464;6.968;2022-09-01T12:11:03;0.00;;;0.00;;
22287;SDS011;11312;51.464;6.968;2022-09-01T12:13:31;1.15;;;0.47;;
22287;SDS011;11312;51.464;6.968;2022-09-01T12:16:02;1.08;;;0.20;;
22287;SDS011;11312;51.464;6.968;2022-09-01T12:18:34;0.47;;;0.15;;
22287;SDS011;11312;51.464;6.968;2022-09-01T12:21:15;0.20;;;0.17;;
22287;SDS011;11312;51.464;6.968;2022-09-01T12:23:53;1.15;;;0.35;;
22287;SDS011;11312;51.464;6.968;2022-09-01T12:26:39;0.55;;;0.25;;
22287;SDS011;11312;51.464;6.968;2022-09-01T12:29:06;0.05;;;0.05;;
22287;SDS011;11312;51.464;6.968;2022-09-01T12:31:32;0.52;;;0.10;;
22287;SDS011;11312;51.464;6.968;2022-09-01T12:33:59;0.10;;;0.10;;
22287;SDS011;11312;51.464;6.968;2022-09-01T12:36:34;0.30;;;0.20;;
22287;SDS011;11312;51.464;6.968;2022-09-01T12:49:21;0.90;;;0.30;;
22287;SDS011;11312;51.464;6.968;2022-09-01T12:51:49;0.95;;;0.43;;
22287;SDS011;11312;51.464;6.968;2022-09-01T12:57:29;0.00;;;0.00;;
22287;SDS011;11312;51.464;6.968;2022-09-01T13:00:31;0.60;;;0.20;;
22287;SDS011;11312;51.464;6.968;2022-09-01T13:05:35;1.02;;;0.17;;
22287;SDS011;11312;51.464;6.968;2022-09-01T13:08:07;0.95;;;0.35;;
22287;SDS011;11312;51.464;6.968;2022-09-01T13:10:47;0.10;;;0.10;;
22287;SDS011;11312;51.464;6.968;2022-09-01T13:13:16;0.65;;;0.22;;
22287;SDS011;11312;51.464;6.968;2022-09-01T13:15:43;0.57;;;0.13;;
22287;SDS011;11312;51.464;6.968;2022-09-01T13:18:17;1.35;;;0.43;;
22287;SDS011;11312;51.464;6.968;2022-09-01T13:20:44;0.30;;;0.10;;
22287;SDS011;11312;51.464;6.968;2022-09-01T13:23:09;0.20;;;0.17;;
22287;SDS011;11312;51.464;6.968;2022-09-01T13:25:36;1.48;;;0.43;;
22287;SDS011;11312;51.464;6.968;2022-09-01T13:28:04;0.00;;;0.00;;
22287;SDS011;11312;51.464;6.968;2022-09-01T13:30:30;0.00;;;0.00;;
22287;SDS011;11312;51.464;6.968;2022-09-01T13:32:56;0.00;;;0.00;;
22287;SDS011;11312;51.464;6.968;2022-09-01T13:35:22;1.45;;;0.30;;
22287;SDS011;11312;51.464;6.968;2022-09-01T13:37:48;1.77;;;0.65;;
22287;SDS011;11312;51.464;6.968;2022-09-01T13:40:18;0.52;;;0.25;;
22287;SDS011;11312;51.464;6.968;2022-09-01T13:42:45;3.50;;;1.00;;
22287;SDS011;11312;51.464;6.968;2022-09-01T13:45:18;0.15;;;0.15;;
22287;SDS011;11312;51.464;6.968;2022-09-01T13:47:49;0.47;;;0.20;;
22287;SDS011;11312;51.464;6.968;2022-09-01T13:50:15;1.75;;;0.52;;
22287;SDS011;11312;51.464;6.968;2022-09-01T13:52:43;0.30;;;0.22;;
22287;SDS011;11312;51.464;6.968;2022-09-01T13:55:16;0.00;;;0.00;;
22287;SDS011;11312;51.464;6.968;2022-09-01T13:57:43;1.63;;;0.40;;
22287;SDS011;11312;51.464;6.968;2022-09-01T14:00:10;0.08;;;0.03;;
22287;SDS011;11312;51.464;6.968;2022-09-01T14:02:40;0.63;;;0.20;;
22287;SDS011;11312;51.464;6.968;2022-09-01T14:05:13;0.10;;;0.10;;
22287;SDS011;11312;51.464;6.968;2022-09-01T14:07:39;0.68;;;0.30;;
22287;SDS011;11312;51.464;6.968;2022-09-01T14:10:05;0.50;;;0.20;;
22287;SDS011;11312;51.464;6.968;2022-09-01T14:12:33;0.17;;;0.17;;
22287;SDS011;11312;51.464;6.968;2022-09-01T14:14:59;0.85;;;0.47;;
22287;SDS011;11312;51.464;6.968;2022-09-01T14:17:24;0.35;;;0.22;;
22287;SDS011;11312;51.464;6.968;2022-09-01T14:19:50;0.55;;;0.35;;
22287;SDS011;11312;51.464;6.968;2022-09-01T14:22:16;1.13;;;0.45;;
22287;SDS011;11312;51.464;6.968;2022-09-01T14:24:42;0.25;;;0.20;;
22287;SDS011;11312;51.464;6.968;2022-09-01T14:27:08;2.10;;;0.65;;
22287;SDS011;11312;51.464;6.968;2022-09-01T14:29:35;0.20;;;0.20;;
22287;SDS011;11312;51.464;6.968;2022-09-01T14:32:01;0.82;;;0.32;;
22287;SDS011;11312;51.464;6.968;2022-09-01T14:34:26;2.35;;;0.93;;
22287;SDS011;11312;51.464;6.968;2022-09-01T14:36:52;0.20;;;0.20;;
22287;SDS011;11312;51.464;6.968;2022-09-01T14:39:20;0.10;;;0.10;;
22287;SDS011;11312;51.464;6.968;2022-09-01T14:41:46;0.55;;;0.30;;
22287;SDS011;11312;51.464;6.968;2022-09-01T14:44:12;1.13;;;0.32;;
22287;SDS011;11312;51.464;6.968;2022-09-01T14:46:37;0.13;;;0.13;;
22287;SDS011;11312;51.464;6.968;2022-09-01T14:49:03;0.10;;;0.10;;
22287;SDS011;11312;51.464;6.968;2022-09-01T14:51:31;0.30;;;0.25;;
22287;SDS011;11312;51.464;6.968;2022-09-01T14:53:58;0.10;;;0.10;;
22287;SDS011;11312;51.464;6.968;2022-09-01T14:56:24;1.58;;;0.70;;
22287;SDS011;11312;51.464;6.968;2022-09-01T14:58:50;0.60;;;0.25;;
22287;SDS011;11312;51.464;6.968;2022-09-01T15:01:18;0.15;;;0.10;;
22287;SDS011;11312;51.464;6.968;2022-09-01T15:03:49;0.20;;;0.20;;
22287;SDS011;11312;51.464;6.968;2022-09-01T15:06:16;1.15;;;0.40;;
22287;SDS011;11312;51.464;6.968;2022-09-01T15:08:43;1.55;;;0.57;;
22287;SDS011;11312;51.464;6.968;2022-09-01T15:11:09;0.20;;;0.20;;
22287;SDS011;11312;51.464;6.968;2022-09-01T15:13:36;0.25;;;0.25;;
22287;SDS011;11312;51.464;6.968;2022-09-01T15:16:03;0.30;;;0.25;;
22287;SDS011;11312;51.464;6.968;2022-09-01T15:18:29;1.92;;;0.57;;
22287;SDS011;11312;51.464;6.968;2022-09-01T15:20:55;0.20;;;0.20;;
22287;SDS011;11312;51.464;6.968;2022-09-01T15:23:22;0.20;;;0.20;;
22287;SDS011;11312;51.464;6.968;2022-09-01T15:25:50;0.75;;;0.38;;
22287;SDS011;11312;51.464;6.968;2022-09-01T15:28:17;0.52;;;0.30;;
22287;SDS011;11312;51.464;6.968;2022-09-01T15:30:43;0.40;;;0.40;;
22287;SDS011;11312;51.464;6.968;2022-09-01T15:33:10;0.73;;;0.50;;
22287;SDS011;11312;51.464;6.968;2022-09-01T15:35:36;0.30;;;0.30;;
22287;SDS011;11312;51.464;6.968;2022-09-01T15:38:03;0.60;;;0.30;;
22287;SDS011;11312;51.464;6.968;2022-09-01T15:40:30;1.85;;;0.75;;
22287;SDS011;11312;51.464;6.968;2022-09-01T15:42:56;0.20;;;0.20;;
22287;SDS011;11312;51.464;6.968;2022-09-01T15:45:23;0.43;;;0.35;;
22287;SDS011;11312;51.464;6.968;2022-09-01T15:47:49;0.40;;;0.25;;
22287;SDS011;11312;51.464;6.968;2022-09-01T15:50:17;0.43;;;0.30;;
22287;SDS011;11312;51.464;6.968;2022-09-01T15:52:50;0.40;;;0.40;;
22287;SDS011;11312;51.464;6.968;2022-09-01T15:55:17;2.40;;;0.55;;
22287;SDS011;11312;51.464;6.968;2022-09-01T15:57:48;1.80;;;0.77;;
22287;SDS011;11312;51.464;6.968;2022-09-01T16:00:17;0.60;;;0.60;;
22287;SDS011;11312;51.464;6.968;2022-09-01T16:02:43;0.63;;;0.30;;
22287;SDS011;11312;51.464;6.968;2022-09-01T16:05:09;0.30;;;0.30;;
22287;SDS011;11312;51.464;6.968;2022-09-01T16:07:36;0.60;;;0.32;;
22287;SDS011;11312;51.464;6.968;2022-09-01T16:10:02;0.57;;;0.50;;
22287;SDS011;11312;51.464;6.968;2022-09-01T16:12:28;0.70;;;0.47;;
22287;SDS011;11312;51.464;6.968;2022-09-01T16:14:55;0.30;;;0.30;;
22287;SDS011;11312;51.464;6.968;2022-09-01T16:17:43;0.30;;;0.30;;
22287;SDS011;11312;51.464;6.968;2022-09-01T16:20:20;1.60;;;0.70;;
22287;SDS011;11312;51.464;6.968;2022-09-01T16:25:31;3.13;;;0.95;;
22287;SDS011;11312;51.464;6.968;2022-09-01T16:28:01;1.65;;;0.65;;
22287;SDS011;11312;51.464;6.968;2022-09-01T16:30:45;2.50;;;0.85;;
22287;SDS011;11312;51.464;6.968;2022-09-01T16:33:13;2.10;;;1.10;;
22287;SDS011;11312;51.464;6.968;2022-09-01T16:35:48;0.43;;;0.40;;
22287;SDS011;11312;51.464;6.968;2022-09-01T16:38:42;1.75;;;0.82;;
22287;SDS011;11312;51.464;6.968;2022-09-01T16:46:48;4.22;;;1.08;;